sensor_id;sensor_type;location;lat;lon;timestamp;pressure;altitude;pressure_sealevel;temperature;humidity
21664;BME280;10993;52.510;13.456;2023-07-13T00:04:23;57447.72;;;-146.93;48.98
21664;BME280;10993;52.510;13.456;2023-07-13T00:09:25;57391.00;;;-146.93;49.09
21664;BME280;10993;52.510;13.456;2023-07-13T00:14:27;57368.75;;;-146.93;50.03
21664;BME280;10993;52.510;13.456;2023-07-13T00:19:29;57346.47;;;-146.93;50.98
21664;BME280;10993;52.510;13.456;2023-07-13T00:24:29;57316.09;;;-146.93;51.26
21664;BME280;10993;52.510;13.456;2023-07-13T00:29:30;57312.03;;;-146.93;52.00
21664;BME280;10993;52.510;13.456;2023-07-13T00:34:32;57297.84;;;-146.93;51.95
21664;BME280;10993;52.510;13.456;2023-07-13T00:39:33;57150.03;;;-146.93;52.16
21664;BME280;10993;52.510;13.456;2023-07-13T00:44:33;57269.50;;;-146.93;52.52
21664;BME280;10993;52.510;13.456;2023-07-13T00:49:35;57277.59;;;-146.93;51.83
21664;BME280;10993;52.510;13.456;2023-07-13T00:54:39;57265.47;;;-146.93;51.87
21664;BME280;10993;52.510;13.456;2023-07-13T00:59:43;57233.06;;;-146.93;52.01
21664;BME280;10993;52.510;13.456;2023-07-13T01:04:46;57255.34;;;-146.93;52.56
21664;BME280;10993;52.510;13.456;2023-07-13T01:09:47;57245.22;;;-146.93;51.89
21664;BME280;10993;52.510;13.456;2023-07-13T01:14:47;57249.25;;;-146.93;51.72
21664;BME280;10993;52.510;13.456;2023-07-13T01:19:49;57196.59;;;-146.93;52.01
21664;BME280;10993;52.510;13.456;2023-07-13T01:24:51;57143.94;;;-146.93;52.49
21664;BME280;10993;52.510;13.456;2023-07-13T01:29:52;57196.59;;;-146.93;52.65
21664;BME280;10993;52.510;13.456;2023-07-13T01:34:53;57148.00;;;-146.93;53.76
21664;BME280;10993;52.510;13.456;2023-07-13T01:39:55;57154.06;;;-146.93;53.76
21664;BME280;10993;52.510;13.456;2023-07-13T01:44:56;57164.19;;;-146.93;54.37
21664;BME280;10993;52.510;13.456;2023-07-13T01:49:56;57127.75;;;-146.93;54.13
21664;BME280;10993;52.510;13.456;2023-07-13T01:54:58;57131.81;;;-146.93;54.23
21664;BME280;10993;52.510;13.456;2023-07-13T01:59:58;57119.66;;;-146.93;55.17
21664;BME280;10993;52.510;13.456;2023-07-13T02:04:59;57135.84;;;-146.93;55.02
21664;BME280;10993;52.510;13.456;2023-07-13T02:10:00;57200.66;;;-146.93;55.16
21664;BME280;10993;52.510;13.456;2023-07-13T02:15:01;57089.28;;;-146.93;55.59
21664;BME280;10993;52.510;13.456;2023-07-13T02:20:02;57143.94;;;-146.93;56.04
21664;BME280;10993;52.510;13.456;2023-07-13T02:25:04;57121.69;;;-146.93;56.75
21664;BME280;10993;52.510;13.456;2023-07-13T02:30:06;57054.84;;;-146.93;57.96
21664;BME280;10993;52.510;13.456;2023-07-13T02:35:07;57083.19;;;-146.93;57.87
21664;BME280;10993;52.510;13.456;2023-07-13T02:40:09;57030.56;;;-146.93;58.92
21664;BME280;10993;52.510;13.456;2023-07-13T02:45:10;57050.81;;;-146.93;58.16
21664;BME280;10993;52.510;13.456;2023-07-13T02:50:10;57113.56;;;-146.93;58.33
21664;BME280;10993;52.510;13.456;2023-07-13T02:55:12;57105.47;;;-146.93;59.04
21664;BME280;10993;52.510;13.456;2023-07-13T03:00:12;57158.13;;;-146.93;57.70
21664;BME280;10993;52.510;13.456;2023-07-13T03:05:13;57150.03;;;-146.93;57.77
21664;BME280;10993;52.510;13.456;2023-07-13T03:10:15;57148.00;;;-146.93;58.45
21664;BME280;10993;52.510;13.456;2023-07-13T03:15:16;57113.56;;;-146.93;59.61
21664;BME280;10993;52.510;13.456;2023-07-13T03:20:16;57089.28;;;-146.93;60.19
21664;BME280;10993;52.510;13.456;2023-07-13T03:25:18;57103.44;;;-146.93;60.03
21664;BME280;10993;52.510;13.456;2023-07-13T03:30:19;57139.91;;;-146.93;59.72
21664;BME280;10993;52.510;13.456;2023-07-13T03:35:19;57176.34;;;-146.93;59.20
21664;BME280;10993;52.510;13.456;2023-07-13T03:40:21;57265.47;;;-146.93;58.13
21664;BME280;10993;52.510;13.456;2023-07-13T03:45:21;57314.06;;;-146.93;56.39
21664;BME280;10993;52.510;13.456;2023-07-13T03:50:22;57415.31;;;-146.93;54.05
21664;BME280;10993;52.510;13.456;2023-07-13T03:55:24;57640.13;;;-146.93;50.43
21664;BME280;10993;52.510;13.456;2023-07-13T04:00:24;58877.84;;;-146.93;44.21
21664;BME280;10993;52.510;13.456;2023-07-13T04:05:24;58612.44;;;-146.93;39.20
21664;BME280;10993;52.510;13.456;2023-07-13T04:10:26;59195.94;;;-146.93;35.78
21664;BME280;10993;52.510;13.456;2023-07-13T04:15:29;59771.44;;;-146.93;32.82
21664;BME280;10993;52.510;13.456;2023-07-13T04:20:30;60345.03;;;-146.93;30.93
21664;BME280;10993;52.510;13.456;2023-07-13T04:25:32;60687.59;;;-146.93;29.42
21664;BME280;10993;52.510;13.456;2023-07-13T04:30:32;61186.31;;;-146.93;28.69
21664;BME280;10993;52.510;13.456;2023-07-13T04:35:32;61650.63;;;-146.93;27.91
21664;BME280;10993;52.510;13.456;2023-07-13T04:40:34;62461.81;;;-146.93;26.68
21664;BME280;10993;52.510;13.456;2023-07-13T04:45:35;63062.22;;;-146.93;25.88
21664;BME280;10993;52.510;13.456;2023-07-13T04:50:36;62887.78;;;-146.93;25.73
21664;BME280;10993;52.510;13.456;2023-07-13T04:55:38;63301.59;;;-146.93;25.58
21664;BME280;10993;52.510;13.456;2023-07-13T05:00:39;63946.78;;;-146.93;25.02
21664;BME280;10993;52.510;13.456;2023-07-13T05:05:39;64632.69;;;-146.93;24.03
21664;BME280;10993;52.510;13.456;2023-07-13T05:10:41;65101.56;;;-146.93;23.81
21664;BME280;10993;52.510;13.456;2023-07-13T05:15:41;64908.72;;;-146.93;23.70
21664;BME280;10993;52.510;13.456;2023-07-13T05:20:42;64953.38;;;-146.93;23.56
21664;BME280;10993;52.510;13.456;2023-07-13T05:25:43;65810.00;;;-146.93;23.24
21664;BME280;10993;52.510;13.456;2023-07-13T05:30:45;66652.66;;;-146.93;22.53
21664;BME280;10993;52.510;13.456;2023-07-13T05:35:46;67296.44;;;-146.93;22.39
21664;BME280;10993;52.510;13.456;2023-07-13T05:40:48;66699.38;;;-146.93;22.41
21664;BME280;10993;52.510;13.456;2023-07-13T05:45:48;67556.44;;;-146.93;21.90
21664;BME280;10993;52.510;13.456;2023-07-13T05:50:49;68448.28;;;-146.93;21.44
21664;BME280;10993;52.510;13.456;2023-07-13T05:55:53;68883.09;;;-146.93;21.12
21664;BME280;10993;52.510;13.456;2023-07-13T06:00:59;69145.25;;;-146.93;20.87
21664;BME280;10993;52.510;13.456;2023-07-13T06:06:01;68657.56;;;-146.93;21.27
21664;BME280;10993;52.510;13.456;2023-07-13T06:11:04;69254.97;;;-146.93;21.06
21664;BME280;10993;52.510;13.456;2023-07-13T06:16:05;69868.78;;;-146.93;20.82
21664;BME280;10993;52.510;13.456;2023-07-13T06:21:07;70458.28;;;-146.93;20.56
21664;BME280;10993;52.510;13.456;2023-07-13T06:26:09;70437.97;;;-146.93;20.36
21664;BME280;10993;52.510;13.456;2023-07-13T06:31:12;70612.81;;;-146.93;20.42
21664;BME280;10993;52.510;13.456;2023-07-13T06:36:12;71054.00;;;-146.93;20.21
21664;BME280;10993;52.510;13.456;2023-07-13T06:41:14;71389.53;;;-146.93;19.90
21664;BME280;10993;52.510;13.456;2023-07-13T06:46:14;72139.97;;;-146.93;19.80
21664;BME280;10993;52.510;13.456;2023-07-13T06:51:15;71584.75;;;-146.93;19.96
21664;BME280;10993;52.510;13.456;2023-07-13T06:56:16;70474.56;;;-146.93;19.93
21664;BME280;10993;52.510;13.456;2023-07-13T07:01:17;67692.53;;;-146.93;21.23
21664;BME280;10993;52.510;13.456;2023-07-13T07:06:18;69807.81;;;-146.93;20.24
21664;BME280;10993;52.510;13.456;2023-07-13T07:11:24;71271.56;;;-146.93;19.73
21664;BME280;10993;52.510;13.456;2023-07-13T07:16:25;73008.59;;;-146.93;18.84
21664;BME280;10993;52.510;13.456;2023-07-13T07:21:25;73395.16;;;-146.93;18.62
21664;BME280;10993;52.510;13.456;2023-07-13T07:26:27;73728.88;;;-146.93;18.74
21664;BME280;10993;52.510;13.456;2023-07-13T07:31:27;72489.84;;;-146.93;18.80
21664;BME280;10993;52.510;13.456;2023-07-13T07:36:28;73248.66;;;-146.93;18.67
21664;BME280;10993;52.510;13.456;2023-07-13T07:41:30;72178.63;;;-146.93;19.14
21664;BME280;10993;52.510;13.456;2023-07-13T07:46:30;68545.81;;;-146.93;20.02
21664;BME280;10993;52.510;13.456;2023-07-13T07:51:30;67422.38;;;-146.93;20.77
21664;BME280;10993;52.510;13.456;2023-07-13T07:56:33;67406.13;;;-146.93;20.79
21664;BME280;10993;52.510;13.456;2023-07-13T08:01:33;65436.47;;;-146.93;21.96
21664;BME280;10993;52.510;13.456;2023-07-13T08:06:33;63157.56;;;-146.93;23.77
21664;BME280;10993;52.510;13.456;2023-07-13T08:11:35;63291.47;;;-146.93;23.59
21664;BME280;10993;52.510;13.456;2023-07-13T08:16:36;62214.38;;;-146.93;24.86
21664;BME280;10993;52.510;13.456;2023-07-13T08:21:36;62567.28;;;-146.93;24.76
21664;BME280;10993;52.510;13.456;2023-07-13T08:26:38;63194.09;;;-146.93;23.81
21664;BME280;10993;52.510;13.456;2023-07-13T08:31:38;63843.31;;;-146.93;23.42
21664;BME280;10993;52.510;13.456;2023-07-13T08:36:39;63153.50;;;-146.93;23.68
21664;BME280;10993;52.510;13.456;2023-07-13T08:41:40;61975.09;;;-146.93;24.98
21664;BME280;10993;52.510;13.456;2023-07-13T08:46:42;61958.88;;;-146.93;24.84
21664;BME280;10993;52.510;13.456;2023-07-13T08:51:46;61995.38;;;-146.93;24.97
21664;BME280;10993;52.510;13.456;2023-07-13T08:56:50;61214.69;;;-146.93;26.06
21664;BME280;10993;52.510;13.456;2023-07-13T09:02:00;60272.06;;;-146.93;27.99
21664;BME280;10993;52.510;13.456;2023-07-13T09:07:13;61608.06;;;-146.93;26.00
21664;BME280;10993;52.510;13.456;2023-07-13T09:12:23;64788.97;;;-146.93;22.45
21664;BME280;10993;52.510;13.456;2023-07-13T09:17:28;66985.72;;;-146.93;21.41
21664;BME280;10993;52.510;13.456;2023-07-13T09:22:32;69029.41;;;-146.93;20.09
21664;BME280;10993;52.510;13.456;2023-07-13T09:27:40;69141.19;;;-146.93;19.89
21664;BME280;10993;52.510;13.456;2023-07-13T09:32:45;69962.28;;;-146.93;19.17
21664;BME280;10993;52.510;13.456;2023-07-13T09:37:48;71424.09;;;-146.93;19.04
21664;BME280;10993;52.510;13.456;2023-07-13T09:42:51;70177.75;;;-146.93;19.27
21664;BME280;10993;52.510;13.456;2023-07-13T09:47:58;69748.84;;;-146.93;18.76
21664;BME280;10993;52.510;13.456;2023-07-13T09:53:00;67532.06;;;-146.93;19.56
21664;BME280;10993;52.510;13.456;2023-07-13T09:58:10;67068.97;;;-146.93;19.77
21664;BME280;10993;52.510;13.456;2023-07-13T10:03:17;66672.97;;;-146.93;20.18
21664;BME280;10993;52.510;13.456;2023-07-13T10:08:21;66573.47;;;-146.93;20.13
21664;BME280;10993;52.510;13.456;2023-07-13T10:13:27;64724.03;;;-146.93;21.19
21664;BME280;10993;52.510;13.456;2023-07-13T10:18:33;63344.22;;;-146.93;22.07
21664;BME280;10993;52.510;13.456;2023-07-13T10:23:37;65127.94;;;-146.93;21.17
21664;BME280;10993;52.510;13.456;2023-07-13T10:28:40;65062.97;;;-146.93;21.34
21664;BME280;10993;52.510;13.456;2023-07-13T10:33:42;64565.72;;;-146.93;21.22
21664;BME280;10993;52.510;13.456;2023-07-13T10:38:43;63305.66;;;-146.93;22.18
21664;BME280;10993;52.510;13.456;2023-07-13T10:43:47;64539.34;;;-146.93;20.97
21664;BME280;10993;52.510;13.456;2023-07-13T10:48:52;63358.41;;;-146.93;22.16
21664;BME280;10993;52.510;13.456;2023-07-13T10:54:18;64401.34;;;-146.93;21.24
21664;BME280;10993;52.510;13.456;2023-07-13T10:59:25;65316.72;;;-146.93;20.94
21664;BME280;10993;52.510;13.456;2023-07-13T11:04:29;63492.31;;;-146.93;21.20
21664;BME280;10993;52.510;13.456;2023-07-13T11:09:40;64226.81;;;-146.93;21.35
21664;BME280;10993;52.510;13.456;2023-07-13T11:15:02;64368.88;;;-146.93;20.86
21664;BME280;10993;52.510;13.456;2023-07-13T11:20:30;63952.88;;;-146.93;21.18
21664;BME280;10993;52.510;13.456;2023-07-13T11:25:33;64667.19;;;-146.93;20.67
21664;BME280;10993;52.510;13.456;2023-07-13T11:30:38;64811.31;;;-146.93;20.29
21664;BME280;10993;52.510;13.456;2023-07-13T11:35:49;65444.59;;;-146.93;20.19
21664;BME280;10993;52.510;13.456;2023-07-13T11:40:54;64933.09;;;-146.93;20.76
21664;BME280;10993;52.510;13.456;2023-07-13T11:45:56;65284.22;;;-146.93;20.59
21664;BME280;10993;52.510;13.456;2023-07-13T11:51:00;64411.50;;;-146.93;21.03
21664;BME280;10993;52.510;13.456;2023-07-13T11:56:03;63654.63;;;-146.93;21.87
21664;BME280;10993;52.510;13.456;2023-07-13T12:01:05;64241.03;;;-146.93;21.09
21664;BME280;10993;52.510;13.456;2023-07-13T12:06:21;62461.81;;;-146.93;22.62
21664;BME280;10993;52.510;13.456;2023-07-13T12:11:23;62461.81;;;-146.93;22.07
21664;BME280;10993;52.510;13.456;2023-07-13T12:16:30;62125.16;;;-146.93;22.42
21664;BME280;10993;52.510;13.456;2023-07-13T12:21:36;61354.59;;;-146.93;23.74
21664;BME280;10993;52.510;13.456;2023-07-13T12:26:37;60711.94;;;-146.93;24.44
21664;BME280;10993;52.510;13.456;2023-07-13T12:31:43;60365.28;;;-146.93;25.44
21664;BME280;10993;52.510;13.456;2023-07-13T12:36:47;60197.06;;;-146.93;25.76
21664;BME280;10993;52.510;13.456;2023-07-13T12:41:52;59889.00;;;-146.93;25.73
21664;BME280;10993;52.510;13.456;2023-07-13T12:46:58;60154.50;;;-146.93;25.29
21664;BME280;10993;52.510;13.456;2023-07-13T12:52:01;59947.75;;;-146.93;25.78
21664;BME280;10993;52.510;13.456;2023-07-13T12:57:02;60073.44;;;-146.93;25.54
21664;BME280;10993;52.510;13.456;2023-07-13T13:02:19;59935.59;;;-146.93;26.08
21664;BME280;10993;52.510;13.456;2023-07-13T13:07:23;59811.97;;;-146.93;25.76
21664;BME280;10993;52.510;13.456;2023-07-13T13:12:23;59903.19;;;-146.93;26.06
21664;BME280;10993;52.510;13.456;2023-07-13T13:17:30;59943.72;;;-146.93;25.78
21664;BME280;10993;52.510;13.456;2023-07-13T13:22:31;59903.19;;;-146.93;25.81
21664;BME280;10993;52.510;13.456;2023-07-13T13:27:32;60030.88;;;-146.93;25.75
21664;BME280;10993;52.510;13.456;2023-07-13T13:32:34;59992.34;;;-146.93;26.06
21664;BME280;10993;52.510;13.456;2023-07-13T13:37:34;59935.59;;;-146.93;25.84
21664;BME280;10993;52.510;13.456;2023-07-13T13:42:34;59696.47;;;-146.93;26.43
21664;BME280;10993;52.510;13.456;2023-07-13T13:47:36;59678.22;;;-146.93;26.37
21664;BME280;10993;52.510;13.456;2023-07-13T13:52:37;59734.97;;;-146.93;26.25
21664;BME280;10993;52.510;13.456;2023-07-13T13:57:37;59753.22;;;-146.93;26.08
21664;BME280;10993;52.510;13.456;2023-07-13T14:02:39;59674.16;;;-146.93;26.37
21664;BME280;10993;52.510;13.456;2023-07-13T14:07:39;59712.69;;;-146.93;26.40
21664;BME280;10993;52.510;13.456;2023-07-13T14:12:39;59706.59;;;-146.93;26.04
21664;BME280;10993;52.510;13.456;2023-07-13T14:17:41;59670.13;;;-146.93;26.32
21664;BME280;10993;52.510;13.456;2023-07-13T14:22:42;59645.81;;;-146.93;26.18
21664;BME280;10993;52.510;13.456;2023-07-13T14:27:49;59627.56;;;-146.93;25.45
21664;BME280;10993;52.510;13.456;2023-07-13T14:32:51;59625.53;;;-146.93;26.21
21664;BME280;10993;52.510;13.456;2023-07-13T14:37:52;59512.06;;;-146.93;27.00
21664;BME280;10993;52.510;13.456;2023-07-13T14:42:52;59617.44;;;-146.93;26.82
21664;BME280;10993;52.510;13.456;2023-07-13T14:47:54;59759.28;;;-146.93;26.04
21664;BME280;10993;52.510;13.456;2023-07-13T14:52:54;59793.75;;;-146.93;26.51
21664;BME280;10993;52.510;13.456;2023-07-13T14:57:55;59672.16;;;-146.93;26.50
21664;BME280;10993;52.510;13.456;2023-07-13T15:02:59;59544.47;;;-146.93;26.59
21664;BME280;10993;52.510;13.456;2023-07-13T15:08:04;59437.06;;;-146.93;26.94
21664;BME280;10993;52.510;13.456;2023-07-13T15:13:14;59477.59;;;-146.93;27.09
21664;BME280;10993;52.510;13.456;2023-07-13T15:18:18;59386.41;;;-146.93;27.02
21664;BME280;10993;52.510;13.456;2023-07-13T15:23:19;59386.41;;;-146.93;26.92
21664;BME280;10993;52.510;13.456;2023-07-13T15:28:20;59376.28;;;-146.93;26.94
21664;BME280;10993;52.510;13.456;2023-07-13T15:33:24;59246.59;;;-146.93;26.50
21664;BME280;10993;52.510;13.456;2023-07-13T15:38:28;59216.19;;;-146.93;26.50
21664;BME280;10993;52.510;13.456;2023-07-13T15:43:32;59133.13;;;-146.93;26.67
21664;BME280;10993;52.510;13.456;2023-07-13T15:48:35;59082.47;;;-146.93;26.92
21664;BME280;10993;52.510;13.456;2023-07-13T15:53:38;59007.50;;;-146.93;26.94
21664;BME280;10993;52.510;13.456;2023-07-13T15:58:39;58873.78;;;-146.93;27.46
21664;BME280;10993;52.510;13.456;2023-07-13T16:03:41;58950.78;;;-146.93;27.66
21664;BME280;10993;52.510;13.456;2023-07-13T16:08:42;58883.91;;;-146.93;27.86
21664;BME280;10993;52.510;13.456;2023-07-13T16:13:43;58946.72;;;-146.93;27.68
21664;BME280;10993;52.510;13.456;2023-07-13T16:18:46;58768.44;;;-146.93;27.79
21664;BME280;10993;52.510;13.456;2023-07-13T16:23:47;58782.59;;;-146.93;27.94
21664;BME280;10993;52.510;13.456;2023-07-13T16:28:47;58875.81;;;-146.93;27.92
21664;BME280;10993;52.510;13.456;2023-07-13T16:33:49;58831.22;;;-146.93;27.90
21664;BME280;10993;52.510;13.456;2023-07-13T16:38:49;58902.16;;;-146.93;27.70
21664;BME280;10993;52.510;13.456;2023-07-13T16:43:50;58942.66;;;-146.93;27.66
21664;BME280;10993;52.510;13.456;2023-07-13T16:48:52;58819.06;;;-146.93;27.73
21664;BME280;10993;52.510;13.456;2023-07-13T16:53:53;58746.13;;;-146.93;27.51
21664;BME280;10993;52.510;13.456;2023-07-13T16:58:53;58715.75;;;-146.93;27.71
21664;BME280;10993;52.510;13.456;2023-07-13T17:03:55;58740.06;;;-146.93;27.78
21664;BME280;10993;52.510;13.456;2023-07-13T17:09:00;58565.81;;;-146.93;27.86
21664;BME280;10993;52.510;13.456;2023-07-13T17:14:01;58614.44;;;-146.93;29.74
21664;BME280;10993;52.510;13.456;2023-07-13T17:19:11;58310.56;;;-146.93;33.33
21664;BME280;10993;52.510;13.456;2023-07-13T17:24:15;57856.84;;;-146.93;37.97
21664;BME280;10993;52.510;13.456;2023-07-13T17:29:16;57599.63;;;-146.93;48.31
21664;BME280;10993;52.510;13.456;2023-07-13T17:34:17;57378.88;;;-146.93;51.17
21664;BME280;10993;52.510;13.456;2023-07-13T17:39:20;57512.53;;;-146.93;49.83
21664;BME280;10993;52.510;13.456;2023-07-13T17:44:21;57480.13;;;-146.93;48.37
21664;BME280;10993;52.510;13.456;2023-07-13T17:49:24;57447.72;;;-146.93;48.07
21664;BME280;10993;52.510;13.456;2023-07-13T17:54:31;57463.94;;;-146.93;48.25
21664;BME280;10993;52.510;13.456;2023-07-13T17:59:32;57395.06;;;-146.93;50.42
21664;BME280;10993;52.510;13.456;2023-07-13T18:04:33;57324.19;;;-146.93;50.88
21664;BME280;10993;52.510;13.456;2023-07-13T18:09:37;57348.50;;;-146.93;50.78
21664;BME280;10993;52.510;13.456;2023-07-13T18:14:38;57401.16;;;-146.93;50.95
21664;BME280;10993;52.510;13.456;2023-07-13T18:19:42;57281.66;;;-146.93;50.68
21664;BME280;10993;52.510;13.456;2023-07-13T18:24:43;57419.38;;;-146.93;51.15
21664;BME280;10993;52.510;13.456;2023-07-13T18:29:44;57322.16;;;-146.93;53.06
21664;BME280;10993;52.510;13.456;2023-07-13T18:34:46;57399.13;;;-146.93;52.16
21664;BME280;10993;52.510;13.456;2023-07-13T18:39:48;57338.38;;;-146.93;51.63
21664;BME280;10993;52.510;13.456;2023-07-13T18:44:49;57403.16;;;-146.93;51.79
21664;BME280;10993;52.510;13.456;2023-07-13T18:49:51;57378.88;;;-146.93;52.33
21664;BME280;10993;52.510;13.456;2023-07-13T18:54:55;57342.41;;;-146.93;51.32
21664;BME280;10993;52.510;13.456;2023-07-13T18:59:55;57362.66;;;-146.93;50.75
21664;BME280;10993;52.510;13.456;2023-07-13T19:04:57;57362.66;;;-146.93;51.32
21664;BME280;10993;52.510;13.456;2023-07-13T19:09:59;57326.22;;;-146.93;51.61
21664;BME280;10993;52.510;13.456;2023-07-13T19:15:00;57332.28;;;-146.93;50.48
21664;BME280;10993;52.510;13.456;2023-07-13T19:20:04;57295.84;;;-146.93;50.95
21664;BME280;10993;52.510;13.456;2023-07-13T19:25:11;57295.84;;;-146.93;50.62
21664;BME280;10993;52.510;13.456;2023-07-13T19:30:13;57269.50;;;-146.93;50.77
21664;BME280;10993;52.510;13.456;2023-07-13T19:35:14;57208.75;;;-146.93;51.85
21664;BME280;10993;52.510;13.456;2023-07-13T19:40:18;57208.75;;;-146.93;52.84
21664;BME280;10993;52.510;13.456;2023-07-13T19:45:21;57103.44;;;-146.93;53.91
21664;BME280;10993;52.510;13.456;2023-07-13T19:50:23;57170.28;;;-146.93;52.32
21664;BME280;10993;52.510;13.456;2023-07-13T19:55:24;57121.69;;;-146.93;51.81
21664;BME280;10993;52.510;13.456;2023-07-13T20:00:26;57131.81;;;-146.93;52.36
21664;BME280;10993;52.510;13.456;2023-07-13T20:05:28;57148.00;;;-146.93;53.89
21664;BME280;10993;52.510;13.456;2023-07-13T20:10:30;57143.94;;;-146.93;52.84
21664;BME280;10993;52.510;13.456;2023-07-13T20:15:32;57129.78;;;-146.93;52.59
21664;BME280;10993;52.510;13.456;2023-07-13T20:20:36;57148.00;;;-146.93;52.69
21664;BME280;10993;52.510;13.456;2023-07-13T20:25:42;57206.72;;;-146.93;52.08
21664;BME280;10993;52.510;13.456;2023-07-13T20:30:44;57190.53;;;-146.93;52.05
21664;BME280;10993;52.510;13.456;2023-07-13T20:35:47;57202.69;;;-146.93;52.16
21664;BME280;10993;52.510;13.456;2023-07-13T20:40:49;57245.22;;;-146.93;52.46
21664;BME280;10993;52.510;13.456;2023-07-13T20:45:55;57188.50;;;-146.93;53.17
21664;BME280;10993;52.510;13.456;2023-07-13T20:50:59;57154.06;;;-146.93;54.04
21664;BME280;10993;52.510;13.456;2023-07-13T20:56:00;57148.00;;;-146.93;52.75
21664;BME280;10993;52.510;13.456;2023-07-13T21:01:00;57176.34;;;-146.93;53.89
21664;BME280;10993;52.510;13.456;2023-07-13T21:06:13;57075.09;;;-146.93;55.28
21664;BME280;10993;52.510;13.456;2023-07-13T21:11:14;57107.50;;;-146.93;55.32
21664;BME280;10993;52.510;13.456;2023-07-13T21:16:19;57054.84;;;-146.93;55.43
21664;BME280;10993;52.510;13.456;2023-07-13T21:21:23;57050.81;;;-146.93;54.91
21664;BME280;10993;52.510;13.456;2023-07-13T21:26:24;57042.69;;;-146.93;54.52
21664;BME280;10993;52.510;13.456;2023-07-13T21:31:26;57083.19;;;-146.93;54.55
21664;BME280;10993;52.510;13.456;2023-07-13T21:36:29;57081.19;;;-146.93;54.74
21664;BME280;10993;52.510;13.456;2023-07-13T21:41:31;57058.91;;;-146.93;54.86
21664;BME280;10993;52.510;13.456;2023-07-13T21:46:32;57022.44;;;-146.93;55.11
21664;BME280;10993;52.510;13.456;2023-07-13T21:51:34;57042.69;;;-146.93;55.29
21664;BME280;10993;52.510;13.456;2023-07-13T21:56:35;56996.13;;;-146.93;54.55
21664;BME280;10993;52.510;13.456;2023-07-13T22:01:35;57079.16;;;-146.93;55.14
21664;BME280;10993;52.510;13.456;2023-07-13T22:06:38;57067.00;;;-146.93;55.11
21664;BME280;10993;52.510;13.456;2023-07-13T22:11:38;57038.66;;;-146.93;56.73
21664;BME280;10993;52.510;13.456;2023-07-13T22:16:39;57000.19;;;-146.93;57.23
21664;BME280;10993;52.510;13.456;2023-07-13T22:21:41;56992.06;;;-146.93;57.96
21664;BME280;10993;52.510;13.456;2023-07-13T22:26:41;57018.41;;;-146.93;57.73
21664;BME280;10993;52.510;13.456;2023-07-13T22:31:42;57042.69;;;-146.93;57.73
21664;BME280;10993;52.510;13.456;2023-07-13T22:36:46;56870.59;;;-146.93;57.88
21664;BME280;10993;52.510;13.456;2023-07-13T22:41:47;57010.31;;;-146.93;57.15
21664;BME280;10993;52.510;13.456;2023-07-13T22:46:47;57095.34;;;-146.93;57.02
21664;BME280;10993;52.510;13.456;2023-07-13T22:51:50;57103.44;;;-146.93;56.77
21664;BME280;10993;52.510;13.456;2023-07-13T22:56:51;57121.69;;;-146.93;56.46
21664;BME280;10993;52.510;13.456;2023-07-13T23:01:51;56888.81;;;-146.93;56.09
21664;BME280;10993;52.510;13.456;2023-07-13T23:06:54;57143.94;;;-146.93;55.76
21664;BME280;10993;52.510;13.456;2023-07-13T23:11:55;57172.31;;;-146.93;56.15
21664;BME280;10993;52.510;13.456;2023-07-13T23:16:56;57095.34;;;-146.93;56.58
21664;BME280;10993;52.510;13.456;2023-07-13T23:21:59;57109.53;;;-146.93;56.55
21664;BME280;10993;52.510;13.456;2023-07-13T23:27:00;57006.25;;;-146.93;57.54
21664;BME280;10993;52.510;13.456;2023-07-13T23:32:01;57111.56;;;-146.93;56.48
21664;BME280;10993;52.510;13.456;2023-07-13T23:37:13;57105.47;;;-146.93;57.20
21664;BME280;10993;52.510;13.456;2023-07-13T23:42:15;57042.69;;;-146.93;57.14
21664;BME280;10993;52.510;13.456;2023-07-13T23:47:15;57071.06;;;-146.93;57.00
21664;BME280;10993;52.510;13.456;2023-07-13T23:52:17;57058.91;;;-146.93;57.46
21664;BME280;10993;52.510;13.456;2023-07-13T23:57:17;58415.91;;;-146.93;57.75
